sensor_id;sensor_type;location;lat;lon;timestamp;P1;durP1;ratioP1;P2;durP2;ratioP2
46334;SDS011;32051;48.882;9.210;2024-01-15T00:00:43;23.23;;;10.43;;
46334;SDS011;32051;48.882;9.210;2024-01-15T00:03:09;32.22;;;12.40;;
46334;SDS011;32051;48.882;9.210;2024-01-15T00:05:35;23.00;;;11.00;;
46334;SDS011;32051;48.882;9.210;2024-01-15T00:08:02;26.80;;;11.82;;
46334;SDS011;32051;48.882;9.210;2024-01-15T00:10:28;26.55;;;10.68;;
46334;SDS011;32051;48.882;9.210;2024-01-15T00:12:54;33.40;;;13.50;;
46334;SDS011;32051;48.882;9.210;2024-01-15T00:15:20;30.67;;;11.50;;
46334;SDS011;32051;48.882;9.210;2024-01-15T00:17:47;30.27;;;10.90;;
46334;SDS011;32051;48.882;9.210;2024-01-15T00:20:13;28.10;;;11.88;;
46334;SDS011;32051;48.882;9.210;2024-01-15T00:22:39;20.35;;;10.18;;
46334;SDS011;32051;48.882;9.210;2024-01-15T00:25:05;28.52;;;10.80;;
46334;SDS011;32051;48.882;9.210;2024-01-15T00:27:31;24.90;;;10.48;;
46334;SDS011;32051;48.882;9.210;2024-01-15T00:29:57;25.85;;;10.60;;
46334;SDS011;32051;48.882;9.210;2024-01-15T00:32:23;31.20;;;11.98;;
46334;SDS011;32051;48.882;9.210;2024-01-15T00:34:49;23.50;;;10.68;;
46334;SDS011;32051;48.882;9.210;2024-01-15T00:37:16;23.90;;;10.90;;
46334;SDS011;32051;48.882;9.210;2024-01-15T00:39:42;28.50;;;12.30;;
46334;SDS011;32051;48.882;9.210;2024-01-15T00:42:08;27.05;;;10.82;;
46334;SDS011;32051;48.882;9.210;2024-01-15T00:44:34;26.58;;;11.45;;
46334;SDS011;32051;48.882;9.210;2024-01-15T00:47:00;26.15;;;11.02;;
46334;SDS011;32051;48.882;9.210;2024-01-15T00:49:27;24.40;;;11.02;;
46334;SDS011;32051;48.882;9.210;2024-01-15T00:51:53;30.63;;;10.00;;
46334;SDS011;32051;48.882;9.210;2024-01-15T00:54:19;19.92;;;9.43;;
46334;SDS011;32051;48.882;9.210;2024-01-15T00:56:45;31.15;;;11.38;;
46334;SDS011;32051;48.882;9.210;2024-01-15T00:59:11;22.25;;;10.48;;
46334;SDS011;32051;48.882;9.210;2024-01-15T01:01:40;29.25;;;11.10;;
46334;SDS011;32051;48.882;9.210;2024-01-15T01:04:08;24.92;;;9.75;;
46334;SDS011;32051;48.882;9.210;2024-01-15T01:06:34;17.45;;;9.45;;
46334;SDS011;32051;48.882;9.210;2024-01-15T01:09:01;27.13;;;8.88;;
46334;SDS011;32051;48.882;9.210;2024-01-15T01:11:27;19.83;;;10.77;;
46334;SDS011;32051;48.882;9.210;2024-01-15T01:13:53;22.50;;;9.80;;
46334;SDS011;32051;48.882;9.210;2024-01-15T01:16:19;21.45;;;9.80;;
46334;SDS011;32051;48.882;9.210;2024-01-15T01:18:45;21.67;;;10.77;;
46334;SDS011;32051;48.882;9.210;2024-01-15T01:21:11;28.65;;;11.35;;
46334;SDS011;32051;48.882;9.210;2024-01-15T01:23:37;24.20;;;10.32;;
46334;SDS011;32051;48.882;9.210;2024-01-15T01:26:03;26.98;;;11.85;;
46334;SDS011;32051;48.882;9.210;2024-01-15T01:28:29;23.10;;;9.02;;
46334;SDS011;32051;48.882;9.210;2024-01-15T01:30:55;29.73;;;10.98;;
46334;SDS011;32051;48.882;9.210;2024-01-15T01:33:21;22.55;;;9.77;;
46334;SDS011;32051;48.882;9.210;2024-01-15T01:35:47;21.50;;;8.95;;
46334;SDS011;32051;48.882;9.210;2024-01-15T01:38:13;19.88;;;9.20;;
46334;SDS011;32051;48.882;9.210;2024-01-15T01:40:39;19.08;;;8.80;;
46334;SDS011;32051;48.882;9.210;2024-01-15T01:43:05;18.10;;;7.50;;
46334;SDS011;32051;48.882;9.210;2024-01-15T01:45:31;20.08;;;9.07;;
46334;SDS011;32051;48.882;9.210;2024-01-15T01:47:57;16.90;;;7.97;;
46334;SDS011;32051;48.882;9.210;2024-01-15T01:50:23;18.25;;;8.30;;
46334;SDS011;32051;48.882;9.210;2024-01-15T01:52:50;14.68;;;8.13;;
46334;SDS011;32051;48.882;9.210;2024-01-15T01:55:16;15.82;;;8.38;;
46334;SDS011;32051;48.882;9.210;2024-01-15T01:57:42;21.15;;;8.73;;
46334;SDS011;32051;48.882;9.210;2024-01-15T02:00:09;15.40;;;8.68;;
46334;SDS011;32051;48.882;9.210;2024-01-15T02:02:38;13.32;;;7.47;;
46334;SDS011;32051;48.882;9.210;2024-01-15T02:05:05;18.33;;;8.40;;
46334;SDS011;32051;48.882;9.210;2024-01-15T02:07:34;13.60;;;8.10;;
46334;SDS011;32051;48.882;9.210;2024-01-15T02:10:01;16.10;;;8.45;;
46334;SDS011;32051;48.882;9.210;2024-01-15T02:12:27;18.90;;;8.15;;
46334;SDS011;32051;48.882;9.210;2024-01-15T02:14:53;14.52;;;7.50;;
46334;SDS011;32051;48.882;9.210;2024-01-15T02:17:19;16.55;;;8.65;;
46334;SDS011;32051;48.882;9.210;2024-01-15T02:19:45;21.38;;;8.02;;
46334;SDS011;32051;48.882;9.210;2024-01-15T02:22:11;18.77;;;8.40;;
46334;SDS011;32051;48.882;9.210;2024-01-15T02:24:37;12.63;;;7.47;;
46334;SDS011;32051;48.882;9.210;2024-01-15T02:27:04;15.50;;;8.55;;
46334;SDS011;32051;48.882;9.210;2024-01-15T02:29:31;22.33;;;8.75;;
46334;SDS011;32051;48.882;9.210;2024-01-15T02:31:57;17.63;;;7.35;;
46334;SDS011;32051;48.882;9.210;2024-01-15T02:34:23;12.90;;;6.85;;
46334;SDS011;32051;48.882;9.210;2024-01-15T02:36:49;16.08;;;7.72;;
46334;SDS011;32051;48.882;9.210;2024-01-15T02:39:15;11.95;;;7.25;;
46334;SDS011;32051;48.882;9.210;2024-01-15T02:41:41;13.77;;;7.00;;
46334;SDS011;32051;48.882;9.210;2024-01-15T02:44:07;20.88;;;8.25;;
46334;SDS011;32051;48.882;9.210;2024-01-15T02:46:33;12.45;;;6.80;;
46334;SDS011;32051;48.882;9.210;2024-01-15T02:48:59;12.00;;;7.15;;
46334;SDS011;32051;48.882;9.210;2024-01-15T02:51:25;17.15;;;7.90;;
46334;SDS011;32051;48.882;9.210;2024-01-15T02:53:51;7.18;;;6.03;;
46334;SDS011;32051;48.882;9.210;2024-01-15T02:56:18;12.98;;;7.28;;
46334;SDS011;32051;48.882;9.210;2024-01-15T02:58:44;13.68;;;7.05;;
46334;SDS011;32051;48.882;9.210;2024-01-15T03:01:10;13.93;;;7.68;;
46334;SDS011;32051;48.882;9.210;2024-01-15T03:03:36;13.57;;;6.78;;
46334;SDS011;32051;48.882;9.210;2024-01-15T03:06:02;13.25;;;6.43;;
46334;SDS011;32051;48.882;9.210;2024-01-15T03:08:28;14.60;;;7.13;;
46334;SDS011;32051;48.882;9.210;2024-01-15T03:10:54;13.10;;;6.85;;
46334;SDS011;32051;48.882;9.210;2024-01-15T03:13:20;20.95;;;7.25;;
46334;SDS011;32051;48.882;9.210;2024-01-15T03:15:46;17.08;;;7.57;;
46334;SDS011;32051;48.882;9.210;2024-01-15T03:18:12;13.68;;;6.10;;
46334;SDS011;32051;48.882;9.210;2024-01-15T03:20:38;13.25;;;6.15;;
46334;SDS011;32051;48.882;9.210;2024-01-15T03:23:04;18.77;;;8.38;;
46334;SDS011;32051;48.882;9.210;2024-01-15T03:25:30;16.13;;;7.90;;
46334;SDS011;32051;48.882;9.210;2024-01-15T03:27:56;16.17;;;6.90;;
46334;SDS011;32051;48.882;9.210;2024-01-15T03:30:22;12.15;;;5.97;;
46334;SDS011;32051;48.882;9.210;2024-01-15T03:32:48;15.18;;;7.90;;
46334;SDS011;32051;48.882;9.210;2024-01-15T03:35:15;12.02;;;7.05;;
46334;SDS011;32051;48.882;9.210;2024-01-15T03:37:41;13.55;;;7.05;;
46334;SDS011;32051;48.882;9.210;2024-01-15T03:40:07;14.52;;;6.82;;
46334;SDS011;32051;48.882;9.210;2024-01-15T03:42:34;13.88;;;7.35;;
46334;SDS011;32051;48.882;9.210;2024-01-15T03:45:00;17.15;;;9.02;;
46334;SDS011;32051;48.882;9.210;2024-01-15T03:47:26;15.88;;;6.80;;
46334;SDS011;32051;48.882;9.210;2024-01-15T03:49:52;14.18;;;7.10;;
46334;SDS011;32051;48.882;9.210;2024-01-15T03:52:18;13.95;;;7.10;;
46334;SDS011;32051;48.882;9.210;2024-01-15T03:54:44;13.82;;;6.40;;
46334;SDS011;32051;48.882;9.210;2024-01-15T03:57:10;14.55;;;8.15;;
46334;SDS011;32051;48.882;9.210;2024-01-15T03:59:36;13.80;;;7.35;;
46334;SDS011;32051;48.882;9.210;2024-01-15T04:02:02;13.23;;;7.38;;
46334;SDS011;32051;48.882;9.210;2024-01-15T04:04:29;12.55;;;6.43;;
46334;SDS011;32051;48.882;9.210;2024-01-15T04:06:55;18.77;;;6.90;;
46334;SDS011;32051;48.882;9.210;2024-01-15T04:09:21;13.82;;;6.70;;
46334;SDS011;32051;48.882;9.210;2024-01-15T04:11:47;8.90;;;5.97;;
46334;SDS011;32051;48.882;9.210;2024-01-15T04:14:13;12.55;;;6.15;;
46334;SDS011;32051;48.882;9.210;2024-01-15T04:16:39;14.32;;;5.78;;
46334;SDS011;32051;48.882;9.210;2024-01-15T04:19:06;10.77;;;6.70;;
46334;SDS011;32051;48.882;9.210;2024-01-15T04:21:32;7.00;;;4.68;;
46334;SDS011;32051;48.882;9.210;2024-01-15T04:23:58;14.73;;;6.13;;
46334;SDS011;32051;48.882;9.210;2024-01-15T04:26:24;8.70;;;5.85;;
46334;SDS011;32051;48.882;9.210;2024-01-15T04:28:50;12.38;;;6.45;;
46334;SDS011;32051;48.882;9.210;2024-01-15T04:31:23;9.55;;;5.85;;
46334;SDS011;32051;48.882;9.210;2024-01-15T04:33:49;8.77;;;5.90;;
46334;SDS011;32051;48.882;9.210;2024-01-15T04:36:15;8.50;;;4.45;;
46334;SDS011;32051;48.882;9.210;2024-01-15T04:38:41;7.65;;;5.47;;
46334;SDS011;32051;48.882;9.210;2024-01-15T04:41:14;8.85;;;6.10;;
46334;SDS011;32051;48.882;9.210;2024-01-15T04:43:41;8.68;;;5.30;;
46334;SDS011;32051;48.882;9.210;2024-01-15T04:46:07;7.43;;;4.65;;
46334;SDS011;32051;48.882;9.210;2024-01-15T04:48:33;7.43;;;4.65;;
46334;SDS011;32051;48.882;9.210;2024-01-15T04:51:00;5.72;;;3.88;;
46334;SDS011;32051;48.882;9.210;2024-01-15T04:53:26;9.55;;;6.30;;
46334;SDS011;32051;48.882;9.210;2024-01-15T04:55:52;7.03;;;5.53;;
46334;SDS011;32051;48.882;9.210;2024-01-15T04:58:18;10.20;;;5.25;;
46334;SDS011;32051;48.882;9.210;2024-01-15T05:00:44;9.15;;;4.78;;
46334;SDS011;32051;48.882;9.210;2024-01-15T05:03:10;7.32;;;4.68;;
46334;SDS011;32051;48.882;9.210;2024-01-15T05:05:36;6.15;;;5.05;;
46334;SDS011;32051;48.882;9.210;2024-01-15T05:08:02;8.77;;;4.97;;
46334;SDS011;32051;48.882;9.210;2024-01-15T05:10:28;8.93;;;4.85;;
46334;SDS011;32051;48.882;9.210;2024-01-15T05:12:54;14.57;;;4.57;;
46334;SDS011;32051;48.882;9.210;2024-01-15T05:15:20;5.85;;;4.47;;
46334;SDS011;32051;48.882;9.210;2024-01-15T05:17:46;10.73;;;6.35;;
46334;SDS011;32051;48.882;9.210;2024-01-15T05:20:13;9.73;;;4.55;;
46334;SDS011;32051;48.882;9.210;2024-01-15T05:22:39;9.68;;;5.18;;
46334;SDS011;32051;48.882;9.210;2024-01-15T05:25:05;6.90;;;5.00;;
46334;SDS011;32051;48.882;9.210;2024-01-15T05:27:31;7.47;;;5.28;;
46334;SDS011;32051;48.882;9.210;2024-01-15T05:29:57;7.85;;;5.38;;
46334;SDS011;32051;48.882;9.210;2024-01-15T05:32:23;7.97;;;5.75;;
46334;SDS011;32051;48.882;9.210;2024-01-15T05:34:49;16.73;;;7.20;;
46334;SDS011;32051;48.882;9.210;2024-01-15T05:37:15;5.55;;;4.63;;
46334;SDS011;32051;48.882;9.210;2024-01-15T05:39:41;8.55;;;5.10;;
46334;SDS011;32051;48.882;9.210;2024-01-15T05:42:07;10.68;;;6.07;;
46334;SDS011;32051;48.882;9.210;2024-01-15T05:44:33;12.43;;;5.63;;
46334;SDS011;32051;48.882;9.210;2024-01-15T05:46:59;12.20;;;6.05;;
46334;SDS011;32051;48.882;9.210;2024-01-15T05:49:25;10.10;;;5.68;;
46334;SDS011;32051;48.882;9.210;2024-01-15T05:51:51;9.23;;;5.80;;
46334;SDS011;32051;48.882;9.210;2024-01-15T05:54:18;6.68;;;4.47;;
46334;SDS011;32051;48.882;9.210;2024-01-15T05:56:45;12.55;;;5.80;;
46334;SDS011;32051;48.882;9.210;2024-01-15T05:59:11;12.18;;;5.38;;
46334;SDS011;32051;48.882;9.210;2024-01-15T06:01:37;9.35;;;5.53;;
46334;SDS011;32051;48.882;9.210;2024-01-15T06:04:03;9.88;;;6.03;;
46334;SDS011;32051;48.882;9.210;2024-01-15T06:06:29;11.73;;;7.05;;
46334;SDS011;32051;48.882;9.210;2024-01-15T06:08:56;18.45;;;5.93;;
46334;SDS011;32051;48.882;9.210;2024-01-15T06:11:29;9.07;;;5.65;;
46334;SDS011;32051;48.882;9.210;2024-01-15T06:13:55;9.15;;;5.80;;
46334;SDS011;32051;48.882;9.210;2024-01-15T06:16:21;9.23;;;5.78;;
46334;SDS011;32051;48.882;9.210;2024-01-15T06:18:47;7.20;;;4.93;;
46334;SDS011;32051;48.882;9.210;2024-01-15T06:21:13;7.38;;;5.38;;
46334;SDS011;32051;48.882;9.210;2024-01-15T06:23:39;11.90;;;4.88;;
46334;SDS011;32051;48.882;9.210;2024-01-15T06:26:06;11.13;;;5.30;;
46334;SDS011;32051;48.882;9.210;2024-01-15T06:28:32;8.45;;;4.75;;
46334;SDS011;32051;48.882;9.210;2024-01-15T06:30:58;9.48;;;5.53;;
46334;SDS011;32051;48.882;9.210;2024-01-15T06:33:24;6.97;;;4.43;;
46334;SDS011;32051;48.882;9.210;2024-01-15T06:35:50;6.22;;;4.78;;
46334;SDS011;32051;48.882;9.210;2024-01-15T06:38:16;5.63;;;4.05;;
46334;SDS011;32051;48.882;9.210;2024-01-15T06:40:42;9.95;;;5.15;;
46334;SDS011;32051;48.882;9.210;2024-01-15T06:43:14;5.07;;;3.97;;
46334;SDS011;32051;48.882;9.210;2024-01-15T06:45:43;6.20;;;4.70;;
46334;SDS011;32051;48.882;9.210;2024-01-15T06:48:09;7.22;;;5.10;;
46334;SDS011;32051;48.882;9.210;2024-01-15T06:50:37;6.18;;;5.10;;
46334;SDS011;32051;48.882;9.210;2024-01-15T06:53:03;6.85;;;4.63;;
46334;SDS011;32051;48.882;9.210;2024-01-15T06:55:29;5.68;;;4.50;;
46334;SDS011;32051;48.882;9.210;2024-01-15T06:57:55;9.52;;;4.57;;
46334;SDS011;32051;48.882;9.210;2024-01-15T07:00:21;5.32;;;4.63;;
46334;SDS011;32051;48.882;9.210;2024-01-15T07:02:47;9.73;;;5.22;;
46334;SDS011;32051;48.882;9.210;2024-01-15T07:05:13;13.38;;;5.32;;
46334;SDS011;32051;48.882;9.210;2024-01-15T07:07:40;8.40;;;4.05;;
46334;SDS011;32051;48.882;9.210;2024-01-15T07:10:06;9.68;;;5.30;;
46334;SDS011;32051;48.882;9.210;2024-01-15T07:12:32;18.08;;;7.38;;
46334;SDS011;32051;48.882;9.210;2024-01-15T07:14:58;10.10;;;5.60;;
46334;SDS011;32051;48.882;9.210;2024-01-15T07:17:25;5.93;;;4.50;;
46334;SDS011;32051;48.882;9.210;2024-01-15T07:19:51;10.38;;;5.63;;
46334;SDS011;32051;48.882;9.210;2024-01-15T07:22:17;8.85;;;5.03;;
46334;SDS011;32051;48.882;9.210;2024-01-15T07:24:43;8.10;;;5.03;;
46334;SDS011;32051;48.882;9.210;2024-01-15T07:27:09;10.65;;;5.63;;
46334;SDS011;32051;48.882;9.210;2024-01-15T07:29:36;7.22;;;4.82;;
46334;SDS011;32051;48.882;9.210;2024-01-15T07:32:02;13.38;;;5.05;;
46334;SDS011;32051;48.882;9.210;2024-01-15T07:34:29;8.63;;;5.82;;
46334;SDS011;32051;48.882;9.210;2024-01-15T07:36:55;7.82;;;5.05;;
46334;SDS011;32051;48.882;9.210;2024-01-15T07:39:21;9.63;;;5.25;;
46334;SDS011;32051;48.882;9.210;2024-01-15T07:41:48;6.85;;;4.88;;
46334;SDS011;32051;48.882;9.210;2024-01-15T07:44:14;6.53;;;3.90;;
46334;SDS011;32051;48.882;9.210;2024-01-15T07:46:43;5.88;;;4.80;;
46334;SDS011;32051;48.882;9.210;2024-01-15T07:49:10;6.57;;;4.63;;
46334;SDS011;32051;48.882;9.210;2024-01-15T07:51:36;6.88;;;5.93;;
46334;SDS011;32051;48.882;9.210;2024-01-15T07:54:02;11.73;;;4.55;;
46334;SDS011;32051;48.882;9.210;2024-01-15T07:56:28;4.72;;;4.20;;
46334;SDS011;32051;48.882;9.210;2024-01-15T07:58:55;6.78;;;4.10;;
46334;SDS011;32051;48.882;9.210;2024-01-15T08:01:22;5.07;;;4.20;;
46334;SDS011;32051;48.882;9.210;2024-01-15T08:03:48;12.18;;;4.68;;
46334;SDS011;32051;48.882;9.210;2024-01-15T08:06:14;6.40;;;4.13;;
46334;SDS011;32051;48.882;9.210;2024-01-15T08:08:40;5.82;;;4.15;;
46334;SDS011;32051;48.882;9.210;2024-01-15T08:11:06;5.70;;;4.35;;
46334;SDS011;32051;48.882;9.210;2024-01-15T08:13:32;10.15;;;4.85;;
46334;SDS011;32051;48.882;9.210;2024-01-15T08:15:58;7.93;;;4.88;;
46334;SDS011;32051;48.882;9.210;2024-01-15T08:18:24;7.53;;;4.90;;
46334;SDS011;32051;48.882;9.210;2024-01-15T08:20:50;5.90;;;4.85;;
46334;SDS011;32051;48.882;9.210;2024-01-15T08:23:17;6.65;;;3.28;;
46334;SDS011;32051;48.882;9.210;2024-01-15T08:25:43;5.32;;;4.30;;
46334;SDS011;32051;48.882;9.210;2024-01-15T08:28:09;5.90;;;4.65;;
46334;SDS011;32051;48.882;9.210;2024-01-15T08:30:35;4.88;;;4.38;;
46334;SDS011;32051;48.882;9.210;2024-01-15T08:33:01;9.23;;;4.45;;
46334;SDS011;32051;48.882;9.210;2024-01-15T08:35:27;7.93;;;4.60;;
46334;SDS011;32051;48.882;9.210;2024-01-15T08:37:53;6.78;;;4.10;;
46334;SDS011;32051;48.882;9.210;2024-01-15T08:40:20;7.75;;;4.68;;
46334;SDS011;32051;48.882;9.210;2024-01-15T08:42:46;7.38;;;4.38;;
46334;SDS011;32051;48.882;9.210;2024-01-15T08:45:12;4.97;;;4.18;;
46334;SDS011;32051;48.882;9.210;2024-01-15T08:47:38;9.00;;;4.50;;
46334;SDS011;32051;48.882;9.210;2024-01-15T08:50:04;4.82;;;3.70;;
46334;SDS011;32051;48.882;9.210;2024-01-15T08:52:30;6.22;;;4.75;;
46334;SDS011;32051;48.882;9.210;2024-01-15T08:54:57;6.00;;;4.20;;
46334;SDS011;32051;48.882;9.210;2024-01-15T08:57:23;4.65;;;3.60;;
46334;SDS011;32051;48.882;9.210;2024-01-15T08:59:49;9.90;;;5.15;;
46334;SDS011;32051;48.882;9.210;2024-01-15T09:02:16;6.97;;;5.00;;
46334;SDS011;32051;48.882;9.210;2024-01-15T09:04:42;5.43;;;4.05;;
46334;SDS011;32051;48.882;9.210;2024-01-15T09:07:08;4.95;;;3.45;;
46334;SDS011;32051;48.882;9.210;2024-01-15T09:09:34;5.00;;;3.97;;
46334;SDS011;32051;48.882;9.210;2024-01-15T09:12:01;9.93;;;3.67;;
46334;SDS011;32051;48.882;9.210;2024-01-15T09:14:27;10.00;;;4.93;;
46334;SDS011;32051;48.882;9.210;2024-01-15T09:16:54;6.78;;;4.25;;
46334;SDS011;32051;48.882;9.210;2024-01-15T09:19:21;4.88;;;4.10;;
46334;SDS011;32051;48.882;9.210;2024-01-15T09:21:47;10.82;;;3.90;;
46334;SDS011;32051;48.882;9.210;2024-01-15T09:24:13;4.32;;;3.65;;
46334;SDS011;32051;48.882;9.210;2024-01-15T09:26:39;4.85;;;4.07;;
46334;SDS011;32051;48.882;9.210;2024-01-15T09:29:05;6.40;;;2.65;;
46334;SDS011;32051;48.882;9.210;2024-01-15T09:31:31;4.00;;;3.65;;
46334;SDS011;32051;48.882;9.210;2024-01-15T09:33:57;7.03;;;2.72;;
46334;SDS011;32051;48.882;9.210;2024-01-15T09:36:25;2.97;;;2.67;;
46334;SDS011;32051;48.882;9.210;2024-01-15T09:38:52;5.72;;;3.45;;
46334;SDS011;32051;48.882;9.210;2024-01-15T09:41:18;7.03;;;3.20;;
46334;SDS011;32051;48.882;9.210;2024-01-15T09:43:44;9.13;;;4.38;;
46334;SDS011;32051;48.882;9.210;2024-01-15T09:46:10;6.68;;;3.42;;
46334;SDS011;32051;48.882;9.210;2024-01-15T09:48:37;9.57;;;4.53;;
46334;SDS011;32051;48.882;9.210;2024-01-15T09:51:04;3.00;;;2.70;;
46334;SDS011;32051;48.882;9.210;2024-01-15T09:53:33;3.30;;;2.47;;
46334;SDS011;32051;48.882;9.210;2024-01-15T09:55:59;4.72;;;3.20;;
46334;SDS011;32051;48.882;9.210;2024-01-15T09:58:26;5.72;;;2.80;;
46334;SDS011;32051;48.882;9.210;2024-01-15T10:00:54;3.80;;;3.42;;
46334;SDS011;32051;48.882;9.210;2024-01-15T10:03:21;5.88;;;3.80;;
46334;SDS011;32051;48.882;9.210;2024-01-15T10:05:47;14.18;;;3.28;;
46334;SDS011;32051;48.882;9.210;2024-01-15T10:08:16;7.25;;;3.20;;
46334;SDS011;32051;48.882;9.210;2024-01-15T10:10:42;4.05;;;3.45;;
46334;SDS011;32051;48.882;9.210;2024-01-15T10:13:08;5.63;;;4.18;;
46334;SDS011;32051;48.882;9.210;2024-01-15T10:15:35;4.53;;;2.90;;
46334;SDS011;32051;48.882;9.210;2024-01-15T10:18:02;4.65;;;3.03;;
46334;SDS011;32051;48.882;9.210;2024-01-15T10:20:28;4.20;;;2.50;;
46334;SDS011;32051;48.882;9.210;2024-01-15T10:22:54;4.88;;;2.63;;
46334;SDS011;32051;48.882;9.210;2024-01-15T10:25:21;3.40;;;2.55;;
46334;SDS011;32051;48.882;9.210;2024-01-15T10:28:08;3.88;;;2.35;;
46334;SDS011;32051;48.882;9.210;2024-01-15T10:30:35;3.45;;;2.45;;
46334;SDS011;32051;48.882;9.210;2024-01-15T10:33:01;3.20;;;2.55;;
46334;SDS011;32051;48.882;9.210;2024-01-15T10:35:31;4.15;;;3.20;;
46334;SDS011;32051;48.882;9.210;2024-01-15T10:37:58;3.38;;;2.70;;
46334;SDS011;32051;48.882;9.210;2024-01-15T10:40:25;3.05;;;2.70;;
46334;SDS011;32051;48.882;9.210;2024-01-15T10:42:51;4.60;;;2.85;;
46334;SDS011;32051;48.882;9.210;2024-01-15T10:45:17;2.67;;;2.47;;
46334;SDS011;32051;48.882;9.210;2024-01-15T10:47:43;2.95;;;2.53;;
46334;SDS011;32051;48.882;9.210;2024-01-15T10:50:10;2.90;;;2.70;;
46334;SDS011;32051;48.882;9.210;2024-01-15T10:52:36;3.45;;;3.03;;
46334;SDS011;32051;48.882;9.210;2024-01-15T10:55:03;3.13;;;2.53;;
46334;SDS011;32051;48.882;9.210;2024-01-15T10:57:29;4.50;;;3.03;;
46334;SDS011;32051;48.882;9.210;2024-01-15T10:59:56;5.15;;;3.40;;
46334;SDS011;32051;48.882;9.210;2024-01-15T11:02:24;6.07;;;3.00;;
46334;SDS011;32051;48.882;9.210;2024-01-15T11:04:50;3.25;;;2.95;;
46334;SDS011;32051;48.882;9.210;2024-01-15T11:07:16;3.20;;;2.90;;
46334;SDS011;32051;48.882;9.210;2024-01-15T11:09:43;5.72;;;3.28;;
46334;SDS011;32051;48.882;9.210;2024-01-15T11:12:10;4.07;;;3.13;;
46334;SDS011;32051;48.882;9.210;2024-01-15T11:14:40;5.00;;;2.95;;
46334;SDS011;32051;48.882;9.210;2024-01-15T11:17:09;3.08;;;2.78;;
46334;SDS011;32051;48.882;9.210;2024-01-15T11:19:42;6.07;;;4.13;;
46334;SDS011;32051;48.882;9.210;2024-01-15T11:22:09;2.85;;;2.22;;
46334;SDS011;32051;48.882;9.210;2024-01-15T11:24:40;5.28;;;3.42;;
46334;SDS011;32051;48.882;9.210;2024-01-15T11:27:09;3.67;;;2.95;;
46334;SDS011;32051;48.882;9.210;2024-01-15T11:29:36;6.40;;;3.72;;
46334;SDS011;32051;48.882;9.210;2024-01-15T11:37:14;3.45;;;3.13;;
46334;SDS011;32051;48.882;9.210;2024-01-15T11:39:41;4.68;;;4.10;;
46334;SDS011;32051;48.882;9.210;2024-01-15T11:42:10;3.95;;;3.65;;
46334;SDS011;32051;48.882;9.210;2024-01-15T11:44:37;4.20;;;3.80;;
46334;SDS011;32051;48.882;9.210;2024-01-15T11:47:04;4.03;;;3.63;;
46334;SDS011;32051;48.882;9.210;2024-01-15T11:52:00;5.45;;;3.53;;
46334;SDS011;32051;48.882;9.210;2024-01-15T11:54:26;5.10;;;3.85;;
46334;SDS011;32051;48.882;9.210;2024-01-15T11:56:55;4.20;;;3.80;;
46334;SDS011;32051;48.882;9.210;2024-01-15T11:59:22;4.40;;;3.60;;
46334;SDS011;32051;48.882;9.210;2024-01-15T12:01:49;6.22;;;3.75;;
46334;SDS011;32051;48.882;9.210;2024-01-15T12:04:15;7.57;;;4.20;;
46334;SDS011;32051;48.882;9.210;2024-01-15T12:06:42;6.03;;;4.38;;
46334;SDS011;32051;48.882;9.210;2024-01-15T12:09:08;6.43;;;4.05;;
46334;SDS011;32051;48.882;9.210;2024-01-15T12:11:35;4.75;;;4.35;;
46334;SDS011;32051;48.882;9.210;2024-01-15T12:14:02;6.82;;;3.75;;
46334;SDS011;32051;48.882;9.210;2024-01-15T12:16:28;3.88;;;3.58;;
46334;SDS011;32051;48.882;9.210;2024-01-15T12:18:54;6.25;;;4.18;;
46334;SDS011;32051;48.882;9.210;2024-01-15T12:21:20;4.68;;;3.70;;
46334;SDS011;32051;48.882;9.210;2024-01-15T12:23:46;6.68;;;4.07;;
46334;SDS011;32051;48.882;9.210;2024-01-15T12:26:13;4.53;;;3.88;;
46334;SDS011;32051;48.882;9.210;2024-01-15T12:28:39;8.90;;;4.70;;
46334;SDS011;32051;48.882;9.210;2024-01-15T12:31:05;12.70;;;3.78;;
46334;SDS011;32051;48.882;9.210;2024-01-15T12:33:33;6.78;;;4.25;;
46334;SDS011;32051;48.882;9.210;2024-01-15T12:35:59;4.95;;;4.20;;
46334;SDS011;32051;48.882;9.210;2024-01-15T12:38:25;5.43;;;4.40;;
46334;SDS011;32051;48.882;9.210;2024-01-15T12:40:51;4.38;;;3.97;;
46334;SDS011;32051;48.882;9.210;2024-01-15T12:43:17;6.25;;;5.65;;
46334;SDS011;32051;48.882;9.210;2024-01-15T12:45:43;4.72;;;3.72;;
46334;SDS011;32051;48.882;9.210;2024-01-15T12:48:10;5.80;;;3.90;;
46334;SDS011;32051;48.882;9.210;2024-01-15T12:50:36;6.07;;;3.13;;
46334;SDS011;32051;48.882;9.210;2024-01-15T12:53:02;5.57;;;3.65;;
46334;SDS011;32051;48.882;9.210;2024-01-15T12:55:28;4.97;;;3.05;;
46334;SDS011;32051;48.882;9.210;2024-01-15T12:57:54;8.00;;;3.30;;
46334;SDS011;32051;48.882;9.210;2024-01-15T13:00:21;4.07;;;3.20;;
46334;SDS011;32051;48.882;9.210;2024-01-15T13:02:47;6.68;;;4.43;;
46334;SDS011;32051;48.882;9.210;2024-01-15T13:05:14;4.88;;;3.53;;
46334;SDS011;32051;48.882;9.210;2024-01-15T13:07:42;4.20;;;3.30;;
46334;SDS011;32051;48.882;9.210;2024-01-15T13:10:08;7.88;;;3.42;;
46334;SDS011;32051;48.882;9.210;2024-01-15T13:12:35;3.70;;;3.15;;
46334;SDS011;32051;48.882;9.210;2024-01-15T13:15:01;8.63;;;3.63;;
46334;SDS011;32051;48.882;9.210;2024-01-15T13:17:30;6.00;;;3.72;;
46334;SDS011;32051;48.882;9.210;2024-01-15T13:19:56;3.85;;;2.72;;
46334;SDS011;32051;48.882;9.210;2024-01-15T13:22:22;3.47;;;3.05;;
46334;SDS011;32051;48.882;9.210;2024-01-15T13:24:49;7.60;;;3.10;;
46334;SDS011;32051;48.882;9.210;2024-01-15T13:27:15;4.07;;;3.70;;
46334;SDS011;32051;48.882;9.210;2024-01-15T13:29:42;2.58;;;2.30;;
46334;SDS011;32051;48.882;9.210;2024-01-15T13:32:08;2.72;;;2.45;;
46334;SDS011;32051;48.882;9.210;2024-01-15T13:34:36;2.28;;;2.08;;
46334;SDS011;32051;48.882;9.210;2024-01-15T13:37:02;2.38;;;2.17;;
46334;SDS011;32051;48.882;9.210;2024-01-15T13:39:28;3.28;;;2.92;;
46334;SDS011;32051;48.882;9.210;2024-01-15T13:41:58;2.20;;;2.00;;
46334;SDS011;32051;48.882;9.210;2024-01-15T13:44:24;2.20;;;2.05;;
46334;SDS011;32051;48.882;9.210;2024-01-15T13:46:50;3.35;;;3.05;;
46334;SDS011;32051;48.882;9.210;2024-01-15T13:49:17;3.45;;;2.58;;
46334;SDS011;32051;48.882;9.210;2024-01-15T13:51:43;4.95;;;2.63;;
46334;SDS011;32051;48.882;9.210;2024-01-15T13:54:09;3.17;;;2.88;;
46334;SDS011;32051;48.882;9.210;2024-01-15T13:56:36;5.50;;;3.00;;
46334;SDS011;32051;48.882;9.210;2024-01-15T13:59:02;2.92;;;2.65;;
46334;SDS011;32051;48.882;9.210;2024-01-15T14:01:29;3.70;;;2.70;;
46334;SDS011;32051;48.882;9.210;2024-01-15T14:03:55;2.90;;;2.70;;
46334;SDS011;32051;48.882;9.210;2024-01-15T14:06:22;2.55;;;2.35;;
46334;SDS011;32051;48.882;9.210;2024-01-15T14:08:49;3.65;;;3.20;;
46334;SDS011;32051;48.882;9.210;2024-01-15T14:11:15;4.32;;;3.00;;
46334;SDS011;32051;48.882;9.210;2024-01-15T14:13:41;4.22;;;3.38;;
46334;SDS011;32051;48.882;9.210;2024-01-15T14:16:07;4.85;;;3.92;;
46334;SDS011;32051;48.882;9.210;2024-01-15T14:18:34;3.85;;;3.55;;
46334;SDS011;32051;48.882;9.210;2024-01-15T14:21:00;9.00;;;4.68;;
46334;SDS011;32051;48.882;9.210;2024-01-15T14:23:26;4.47;;;3.35;;
46334;SDS011;32051;48.882;9.210;2024-01-15T14:25:52;3.72;;;3.42;;
46334;SDS011;32051;48.882;9.210;2024-01-15T14:28:18;6.88;;;3.70;;
46334;SDS011;32051;48.882;9.210;2024-01-15T14:30:44;4.10;;;3.70;;
46334;SDS011;32051;48.882;9.210;2024-01-15T14:33:11;6.93;;;4.88;;
46334;SDS011;32051;48.882;9.210;2024-01-15T14:35:37;4.50;;;4.10;;
46334;SDS011;32051;48.882;9.210;2024-01-15T14:38:03;9.43;;;4.20;;
46334;SDS011;32051;48.882;9.210;2024-01-15T14:40:29;5.00;;;3.33;;
46334;SDS011;32051;48.882;9.210;2024-01-15T14:42:55;7.38;;;5.70;;